sensor_id;sensor_type;location;lat;lon;timestamp;pressure;altitude;pressure_sealevel;temperature;humidity
81547;BME280;71078;48.358;10.960;2023-08-08T00:00:33;96270.72;;;15.92;47.07
81547;BME280;71078;48.358;10.960;2023-08-08T00:02:54;96284.34;;;16.11;47.29
81547;BME280;71078;48.358;10.960;2023-08-08T00:05:15;96276.78;;;16.11;47.26
81547;BME280;71078;48.358;10.960;2023-08-08T00:07:36;96273.44;;;16.07;47.13
81547;BME280;71078;48.358;10.960;2023-08-08T00:09:57;96265.22;;;16.13;47.36
81547;BME280;71078;48.358;10.960;2023-08-08T00:12:17;96263.66;;;15.91;46.85
81547;BME280;71078;48.358;10.960;2023-08-08T00:14:38;96262.50;;;15.98;47.16
81547;BME280;71078;48.358;10.960;2023-08-08T00:16:59;96267.41;;;16.08;46.94
81547;BME280;71078;48.358;10.960;2023-08-08T00:19:19;96268.47;;;16.11;46.70
81547;BME280;71078;48.358;10.960;2023-08-08T00:21:42;96267.19;;;15.92;46.80
81547;BME280;71078;48.358;10.960;2023-08-08T00:24:03;96266.50;;;15.97;47.15
81547;BME280;71078;48.358;10.960;2023-08-08T00:26:24;96268.19;;;16.09;47.13
81547;BME280;71078;48.358;10.960;2023-08-08T00:28:44;96265.53;;;16.00;47.49
81547;BME280;71078;48.358;10.960;2023-08-08T00:31:04;96264.50;;;15.97;47.27
81547;BME280;71078;48.358;10.960;2023-08-08T00:33:25;96264.75;;;15.79;47.25
81547;BME280;71078;48.358;10.960;2023-08-08T00:35:46;96267.59;;;15.85;47.68
81547;BME280;71078;48.358;10.960;2023-08-08T00:38:06;96269.59;;;15.84;47.17
81547;BME280;71078;48.358;10.960;2023-08-08T00:40:27;96265.09;;;15.87;47.56
81547;BME280;71078;48.358;10.960;2023-08-08T00:42:48;96263.84;;;15.88;47.27
81547;BME280;71078;48.358;10.960;2023-08-08T00:45:08;96259.34;;;15.90;47.34
81547;BME280;71078;48.358;10.960;2023-08-08T00:47:31;96253.97;;;15.66;47.34
81547;BME280;71078;48.358;10.960;2023-08-08T00:49:53;96258.16;;;15.76;47.69
81547;BME280;71078;48.358;10.960;2023-08-08T00:52:14;96262.84;;;15.70;47.65
81547;BME280;71078;48.358;10.960;2023-08-08T00:54:35;96264.28;;;15.66;47.34
81547;BME280;71078;48.358;10.960;2023-08-08T00:56:55;96271.34;;;15.67;47.71
81547;BME280;71078;48.358;10.960;2023-08-08T00:59:18;96261.03;;;15.53;47.81
81547;BME280;71078;48.358;10.960;2023-08-08T01:01:39;96263.31;;;15.54;47.90
81547;BME280;71078;48.358;10.960;2023-08-08T01:03:59;96263.34;;;15.39;47.62
81547;BME280;71078;48.358;10.960;2023-08-08T01:06:29;96255.53;;;15.38;48.17
81547;BME280;71078;48.358;10.960;2023-08-08T01:08:57;96245.97;;;15.24;47.92
81547;BME280;71078;48.358;10.960;2023-08-08T01:11:18;96249.78;;;15.27;48.32
81547;BME280;71078;48.358;10.960;2023-08-08T01:13:39;96250.09;;;15.14;48.54
81547;BME280;71078;48.358;10.960;2023-08-08T01:16:01;96232.16;;;14.95;48.77
81547;BME280;71078;48.358;10.960;2023-08-08T01:18:24;96243.59;;;15.02;48.54
81547;BME280;71078;48.358;10.960;2023-08-08T01:20:46;96238.34;;;15.04;48.61
81547;BME280;71078;48.358;10.960;2023-08-08T01:25:31;96234.53;;;15.17;48.31
81547;BME280;71078;48.358;10.960;2023-08-08T01:27:52;96229.94;;;14.99;48.33
81547;BME280;71078;48.358;10.960;2023-08-08T01:30:13;96227.09;;;14.93;48.55
81547;BME280;71078;48.358;10.960;2023-08-08T01:32:33;96232.34;;;14.91;48.45
81547;BME280;71078;48.358;10.960;2023-08-08T01:34:54;96241.03;;;14.99;48.85
81547;BME280;71078;48.358;10.960;2023-08-08T01:37:23;96243.88;;;15.04;48.97
81547;BME280;71078;48.358;10.960;2023-08-08T01:39:46;96234.53;;;15.02;48.49
81547;BME280;71078;48.358;10.960;2023-08-08T01:42:08;96232.16;;;14.95;48.79
81547;BME280;71078;48.358;10.960;2023-08-08T01:44:29;96233.47;;;14.99;49.05
81547;BME280;71078;48.358;10.960;2023-08-08T01:46:55;96225.19;;;14.99;48.73
81547;BME280;71078;48.358;10.960;2023-08-08T01:49:15;96233.19;;;15.12;49.37
81547;BME280;71078;48.358;10.960;2023-08-08T01:51:36;96235.78;;;15.16;48.90
81547;BME280;71078;48.358;10.960;2023-08-08T01:53:56;96233.78;;;15.16;48.11
81547;BME280;71078;48.358;10.960;2023-08-08T01:56:17;96226.72;;;15.15;48.25
81547;BME280;71078;48.358;10.960;2023-08-08T01:58:38;96225.66;;;15.12;48.08
81547;BME280;71078;48.358;10.960;2023-08-08T02:00:58;96211.44;;;15.05;48.14
81547;BME280;71078;48.358;10.960;2023-08-08T02:03:19;96208.16;;;15.36;48.06
81547;BME280;71078;48.358;10.960;2023-08-08T02:05:39;96215.44;;;15.19;48.01
81547;BME280;71078;48.358;10.960;2023-08-08T02:07:59;96215.44;;;15.04;48.45
81547;BME280;71078;48.358;10.960;2023-08-08T02:10:20;96218.50;;;14.91;48.25
81547;BME280;71078;48.358;10.960;2023-08-08T02:12:40;96215.66;;;15.00;48.57
81547;BME280;71078;48.358;10.960;2023-08-08T02:15:01;96214.59;;;14.98;48.07
81547;BME280;71078;48.358;10.960;2023-08-08T02:17:22;96225.00;;;15.18;48.34
81547;BME280;71078;48.358;10.960;2023-08-08T02:19:43;96222.22;;;14.88;48.07
81547;BME280;71078;48.358;10.960;2023-08-08T02:22:04;96215.34;;;15.13;48.43
81547;BME280;71078;48.358;10.960;2023-08-08T02:24:24;96219.25;;;15.21;47.64
81547;BME280;71078;48.358;10.960;2023-08-08T02:26:45;96209.34;;;15.15;47.76
81547;BME280;71078;48.358;10.960;2023-08-08T02:29:05;96214.59;;;15.12;47.83
81547;BME280;71078;48.358;10.960;2023-08-08T02:31:26;96213.72;;;15.06;48.07
81547;BME280;71078;48.358;10.960;2023-08-08T02:33:48;96214.88;;;15.15;48.20
81547;BME280;71078;48.358;10.960;2023-08-08T02:36:09;96221.06;;;15.09;48.05
81547;BME280;71078;48.358;10.960;2023-08-08T02:38:30;96207.72;;;14.93;48.03
81547;BME280;71078;48.358;10.960;2023-08-08T02:40:50;96211.53;;;15.10;47.91
81547;BME280;71078;48.358;10.960;2023-08-08T02:43:11;96211.53;;;15.10;47.97
81547;BME280;71078;48.358;10.960;2023-08-08T02:45:33;96209.34;;;15.15;48.00
81547;BME280;71078;48.358;10.960;2023-08-08T02:47:54;96213.06;;;15.26;47.25
81547;BME280;71078;48.358;10.960;2023-08-08T02:50:14;96208.75;;;15.25;47.49
81547;BME280;71078;48.358;10.960;2023-08-08T02:52:35;96212.78;;;15.09;47.65
81547;BME280;71078;48.358;10.960;2023-08-08T02:54:56;96209.22;;;15.24;47.93
81547;BME280;71078;48.358;10.960;2023-08-08T02:57:16;96211.69;;;15.36;47.30
81547;BME280;71078;48.358;10.960;2023-08-08T02:59:37;96219.81;;;15.40;47.19
81547;BME280;71078;48.358;10.960;2023-08-08T03:01:58;96217.72;;;15.35;47.36
81547;BME280;71078;48.358;10.960;2023-08-08T03:04:19;96212.66;;;15.33;47.41
81547;BME280;71078;48.358;10.960;2023-08-08T03:06:40;96210.19;;;15.35;47.59
81547;BME280;71078;48.358;10.960;2023-08-08T03:09:00;96215.63;;;15.30;47.10
81547;BME280;71078;48.358;10.960;2023-08-08T03:11:21;96215.78;;;15.41;47.49
81547;BME280;71078;48.358;10.960;2023-08-08T03:13:42;96214.06;;;15.43;47.50
81547;BME280;71078;48.358;10.960;2023-08-08T03:16:03;96207.59;;;15.32;47.55
81547;BME280;71078;48.358;10.960;2023-08-08T03:18:24;96209.88;;;15.33;47.62
81547;BME280;71078;48.358;10.960;2023-08-08T03:20:46;96211.44;;;15.20;48.06
81547;BME280;71078;48.358;10.960;2023-08-08T03:23:08;96202.66;;;15.21;48.08
81547;BME280;71078;48.358;10.960;2023-08-08T03:25:28;96205.78;;;15.29;48.39
81547;BME280;71078;48.358;10.960;2023-08-08T03:27:49;96204.16;;;15.37;47.52
81547;BME280;71078;48.358;10.960;2023-08-08T03:30:10;96200.72;;;15.27;48.22
81547;BME280;71078;48.358;10.960;2023-08-08T03:32:31;96199.88;;;15.21;47.73
81547;BME280;71078;48.358;10.960;2023-08-08T03:34:52;96205.34;;;15.16;47.82
81547;BME280;71078;48.358;10.960;2023-08-08T03:37:13;96201.03;;;15.15;48.80
81547;BME280;71078;48.358;10.960;2023-08-08T03:39:34;96202.19;;;15.08;48.41
81547;BME280;71078;48.358;10.960;2023-08-08T03:41:54;96198.84;;;15.19;48.40
81547;BME280;71078;48.358;10.960;2023-08-08T03:44:15;96193.03;;;15.02;48.25
81547;BME280;71078;48.358;10.960;2023-08-08T03:46:35;96206.84;;;15.17;48.21
81547;BME280;71078;48.358;10.960;2023-08-08T03:48:56;96192.81;;;15.20;48.08
81547;BME280;71078;48.358;10.960;2023-08-08T03:51:17;96198.66;;;15.22;48.27
81547;BME280;71078;48.358;10.960;2023-08-08T03:53:37;96193.00;;;15.31;47.84
81547;BME280;71078;48.358;10.960;2023-08-08T03:55:58;96189.38;;;15.25;47.28
81547;BME280;71078;48.358;10.960;2023-08-08T03:58:18;96199.50;;;15.28;47.80
81547;BME280;71078;48.358;10.960;2023-08-08T04:00:39;96192.72;;;15.29;47.63
81547;BME280;71078;48.358;10.960;2023-08-08T04:03:06;96194.81;;;15.34;47.72
81547;BME280;71078;48.358;10.960;2023-08-08T04:05:27;96192.25;;;15.31;48.19
81547;BME280;71078;48.358;10.960;2023-08-08T04:07:47;96197.69;;;15.25;48.22
81547;BME280;71078;48.358;10.960;2023-08-08T04:10:08;96198.94;;;15.24;47.98
81547;BME280;71078;48.358;10.960;2023-08-08T04:12:29;96199.22;;;15.26;47.46
81547;BME280;71078;48.358;10.960;2023-08-08T04:14:50;96195.28;;;15.33;47.96
81547;BME280;71078;48.358;10.960;2023-08-08T04:17:10;96195.56;;;15.35;47.94
81547;BME280;71078;48.358;10.960;2023-08-08T04:19:31;96202.91;;;15.38;48.11
81547;BME280;71078;48.358;10.960;2023-08-08T04:21:52;96213.41;;;15.49;48.22
81547;BME280;71078;48.358;10.960;2023-08-08T04:24:12;96211.78;;;15.42;47.34
81547;BME280;71078;48.358;10.960;2023-08-08T04:26:33;96207.69;;;15.37;48.42
81547;BME280;71078;48.358;10.960;2023-08-08T04:28:54;96211.13;;;15.32;48.36
81547;BME280;71078;48.358;10.960;2023-08-08T04:31:16;96213.50;;;15.39;48.49
81547;BME280;71078;48.358;10.960;2023-08-08T04:33:36;96223.88;;;15.59;47.84
81547;BME280;71078;48.358;10.960;2023-08-08T04:35:57;96217.97;;;15.52;48.09
81547;BME280;71078;48.358;10.960;2023-08-08T04:38:19;96211.59;;;15.45;47.93
81547;BME280;71078;48.358;10.960;2023-08-08T04:40:40;96211.09;;;15.47;48.30
81547;BME280;71078;48.358;10.960;2023-08-08T04:43:00;96212.44;;;15.52;48.07
81547;BME280;71078;48.358;10.960;2023-08-08T04:45:21;96199.94;;;15.91;47.21
81547;BME280;71078;48.358;10.960;2023-08-08T04:47:42;96214.94;;;15.85;47.52
81547;BME280;71078;48.358;10.960;2023-08-08T04:50:03;96213.00;;;15.70;48.27
81547;BME280;71078;48.358;10.960;2023-08-08T04:52:24;96198.84;;;15.68;47.58
81547;BME280;71078;48.358;10.960;2023-08-08T04:54:44;96211.22;;;15.88;47.97
81547;BME280;71078;48.358;10.960;2023-08-08T04:57:05;96214.34;;;15.95;47.46
81547;BME280;71078;48.358;10.960;2023-08-08T04:59:26;96219.13;;;15.95;47.58
81547;BME280;71078;48.358;10.960;2023-08-08T05:01:47;96207.81;;;15.78;47.57
81547;BME280;71078;48.358;10.960;2023-08-08T05:04:08;96212.81;;;15.94;46.91
81547;BME280;71078;48.358;10.960;2023-08-08T05:06:29;96203.25;;;15.95;46.90
81547;BME280;71078;48.358;10.960;2023-08-08T05:08:51;96208.47;;;16.08;46.58
81547;BME280;71078;48.358;10.960;2023-08-08T05:11:12;96197.44;;;16.14;46.49
81547;BME280;71078;48.358;10.960;2023-08-08T05:13:33;96207.88;;;16.45;45.98
81547;BME280;71078;48.358;10.960;2023-08-08T05:15:53;96211.50;;;16.51;45.67
81547;BME280;71078;48.358;10.960;2023-08-08T05:18:14;96204.50;;;16.35;46.12
81547;BME280;71078;48.358;10.960;2023-08-08T05:20:35;96197.31;;;16.23;46.01
81547;BME280;71078;48.358;10.960;2023-08-08T05:22:56;96201.84;;;16.46;45.76
81547;BME280;71078;48.358;10.960;2023-08-08T05:25:16;96206.50;;;16.55;45.74
81547;BME280;71078;48.358;10.960;2023-08-08T05:27:37;96203.16;;;16.51;45.74
81547;BME280;71078;48.358;10.960;2023-08-08T05:29:58;96205.88;;;16.65;45.27
81547;BME280;71078;48.358;10.960;2023-08-08T05:32:18;96208.75;;;16.77;44.96
81547;BME280;71078;48.358;10.960;2023-08-08T05:34:39;96197.72;;;16.82;44.98
81547;BME280;71078;48.358;10.960;2023-08-08T05:37:00;96204.53;;;16.81;44.61
81547;BME280;71078;48.358;10.960;2023-08-08T05:39:36;96201.81;;;16.87;44.62
81547;BME280;71078;48.358;10.960;2023-08-08T05:41:56;96211.69;;;17.19;44.62
81547;BME280;71078;48.358;10.960;2023-08-08T05:44:17;96211.22;;;17.26;44.29
81547;BME280;71078;48.358;10.960;2023-08-08T05:46:38;96209.03;;;17.36;43.92
81547;BME280;71078;48.358;10.960;2023-08-08T05:48:58;96208.94;;;17.25;44.15
81547;BME280;71078;48.358;10.960;2023-08-08T05:51:19;96215.09;;;17.34;43.61
81547;BME280;71078;48.358;10.960;2023-08-08T05:53:40;96208.75;;;17.02;43.88
81547;BME280;71078;48.358;10.960;2023-08-08T05:56:00;96204.59;;;17.44;43.40
81547;BME280;71078;48.358;10.960;2023-08-08T05:58:21;96205.47;;;17.61;43.15
81547;BME280;71078;48.358;10.960;2023-08-08T06:00:42;96212.69;;;17.48;43.41
81547;BME280;71078;48.358;10.960;2023-08-08T06:03:03;96200.72;;;17.73;43.04
81547;BME280;71078;48.358;10.960;2023-08-08T06:05:24;96198.03;;;17.90;42.86
81547;BME280;71078;48.358;10.960;2023-08-08T06:07:45;96200.13;;;17.58;42.79
81547;BME280;71078;48.358;10.960;2023-08-08T06:10:06;96198.16;;;17.64;43.13
81547;BME280;71078;48.358;10.960;2023-08-08T06:12:28;96199.25;;;17.78;43.08
81547;BME280;71078;48.358;10.960;2023-08-08T06:14:49;96204.19;;;18.11;41.99
81547;BME280;71078;48.358;10.960;2023-08-08T06:17:10;96202.25;;;17.74;42.00
81547;BME280;71078;48.358;10.960;2023-08-08T06:19:30;96196.31;;;18.03;41.56
81547;BME280;71078;48.358;10.960;2023-08-08T06:21:51;96197.28;;;17.95;41.70
81547;BME280;71078;48.358;10.960;2023-08-08T06:24:12;96192.34;;;18.21;41.57
81547;BME280;71078;48.358;10.960;2023-08-08T06:26:32;96201.78;;;18.35;41.33
81547;BME280;71078;48.358;10.960;2023-08-08T06:28:53;96199.56;;;18.45;41.50
81547;BME280;71078;48.358;10.960;2023-08-08T06:31:14;96194.00;;;18.45;41.15
81547;BME280;71078;48.358;10.960;2023-08-08T06:33:35;96199.31;;;18.48;40.69
81547;BME280;71078;48.358;10.960;2023-08-08T06:35:55;96201.13;;;18.62;40.83
81547;BME280;71078;48.358;10.960;2023-08-08T06:38:16;96203.69;;;18.77;41.14
81547;BME280;71078;48.358;10.960;2023-08-08T06:40:37;96203.69;;;18.72;40.80
81547;BME280;71078;48.358;10.960;2023-08-08T06:42:57;96198.66;;;18.87;40.33
81547;BME280;71078;48.358;10.960;2023-08-08T06:45:18;96202.44;;;18.95;40.09
81547;BME280;71078;48.358;10.960;2023-08-08T06:47:39;96197.66;;;18.95;40.36
81547;BME280;71078;48.358;10.960;2023-08-08T06:50:00;96198.22;;;18.23;40.84
81547;BME280;71078;48.358;10.960;2023-08-08T06:52:21;96202.50;;;18.24;40.88
81547;BME280;71078;48.358;10.960;2023-08-08T06:54:42;96200.06;;;18.49;40.62
81547;BME280;71078;48.358;10.960;2023-08-08T06:57:03;96201.13;;;18.62;40.67
81547;BME280;71078;48.358;10.960;2023-08-08T06:59:25;96200.63;;;18.70;40.78
81547;BME280;71078;48.358;10.960;2023-08-08T07:01:47;96208.88;;;18.36;40.41
81547;BME280;71078;48.358;10.960;2023-08-08T07:04:07;96208.50;;;18.12;41.36
81547;BME280;71078;48.358;10.960;2023-08-08T07:06:28;96194.19;;;18.30;41.18
81547;BME280;71078;48.358;10.960;2023-08-08T07:08:49;96192.88;;;19.07;39.97
81547;BME280;71078;48.358;10.960;2023-08-08T07:11:10;96188.03;;;18.15;40.87
81547;BME280;71078;48.358;10.960;2023-08-08T07:13:31;96193.16;;;18.27;40.84
81547;BME280;71078;48.358;10.960;2023-08-08T07:15:52;96185.59;;;18.28;40.64
81547;BME280;71078;48.358;10.960;2023-08-08T07:18:12;96181.16;;;18.75;39.85
81547;BME280;71078;48.358;10.960;2023-08-08T07:20:33;96177.63;;;18.80;39.50
81547;BME280;71078;48.358;10.960;2023-08-08T07:22:54;96182.25;;;19.17;39.33
81547;BME280;71078;48.358;10.960;2023-08-08T07:25:15;96180.72;;;19.10;38.79
81547;BME280;71078;48.358;10.960;2023-08-08T07:27:38;96178.69;;;19.55;38.97
81547;BME280;71078;48.358;10.960;2023-08-08T07:29:59;96174.91;;;19.36;39.19
81547;BME280;71078;48.358;10.960;2023-08-08T07:32:21;96166.00;;;19.54;38.52
81547;BME280;71078;48.358;10.960;2023-08-08T07:34:41;96168.94;;;18.39;39.63
81547;BME280;71078;48.358;10.960;2023-08-08T07:37:02;96171.34;;;19.13;38.99
81547;BME280;71078;48.358;10.960;2023-08-08T07:39:23;96162.41;;;19.87;38.36
81547;BME280;71078;48.358;10.960;2023-08-08T07:41:44;96167.63;;;20.19;37.33
81547;BME280;71078;48.358;10.960;2023-08-08T07:44:05;96170.06;;;19.48;37.95
81547;BME280;71078;48.358;10.960;2023-08-08T07:46:26;96159.66;;;19.71;37.70
81547;BME280;71078;48.358;10.960;2023-08-08T07:48:47;96155.59;;;19.83;37.57
81547;BME280;71078;48.358;10.960;2023-08-08T07:51:07;96168.56;;;19.36;37.54
81547;BME280;71078;48.358;10.960;2023-08-08T07:53:28;96162.53;;;20.23;37.18
81547;BME280;71078;48.358;10.960;2023-08-08T07:55:48;96167.41;;;20.11;36.57
81547;BME280;71078;48.358;10.960;2023-08-08T07:58:09;96147.13;;;20.11;37.38
81547;BME280;71078;48.358;10.960;2023-08-08T08:00:30;96161.19;;;21.23;36.00
81547;BME280;71078;48.358;10.960;2023-08-08T08:02:51;96152.03;;;20.46;35.58
81547;BME280;71078;48.358;10.960;2023-08-08T08:05:12;96149.69;;;20.03;36.83
81547;BME280;71078;48.358;10.960;2023-08-08T08:07:33;96156.03;;;20.04;36.50
81547;BME280;71078;48.358;10.960;2023-08-08T08:09:54;96153.06;;;19.79;36.99
81547;BME280;71078;48.358;10.960;2023-08-08T08:12:14;96152.94;;;20.13;36.95
81547;BME280;71078;48.358;10.960;2023-08-08T08:14:35;96154.41;;;19.22;37.29
81547;BME280;71078;48.358;10.960;2023-08-08T08:16:56;96156.25;;;20.11;36.56
81547;BME280;71078;48.358;10.960;2023-08-08T08:19:16;96147.28;;;19.49;37.32
81547;BME280;71078;48.358;10.960;2023-08-08T08:21:37;96146.72;;;19.73;37.26
81547;BME280;71078;48.358;10.960;2023-08-08T08:23:57;96146.25;;;19.58;37.52
81547;BME280;71078;48.358;10.960;2023-08-08T08:26:18;96151.19;;;21.03;36.33
81547;BME280;71078;48.358;10.960;2023-08-08T08:28:38;96137.66;;;20.77;36.14
81547;BME280;71078;48.358;10.960;2023-08-08T08:31:07;96146.03;;;21.13;35.88
81547;BME280;71078;48.358;10.960;2023-08-08T08:33:28;96139.81;;;20.02;36.69
81547;BME280;71078;48.358;10.960;2023-08-08T08:35:49;96138.88;;;21.17;35.92
81547;BME280;71078;48.358;10.960;2023-08-08T08:38:09;96139.97;;;21.09;35.71
81547;BME280;71078;48.358;10.960;2023-08-08T08:40:37;96126.00;;;21.88;34.98
81547;BME280;71078;48.358;10.960;2023-08-08T08:42:58;96135.63;;;20.78;35.20
81547;BME280;71078;48.358;10.960;2023-08-08T08:45:20;96141.22;;;21.43;34.53
81547;BME280;71078;48.358;10.960;2023-08-08T08:47:43;96144.78;;;20.73;35.28
81547;BME280;71078;48.358;10.960;2023-08-08T08:50:07;96135.16;;;21.64;35.08
81547;BME280;71078;48.358;10.960;2023-08-08T08:52:28;96133.47;;;21.55;33.58
81547;BME280;71078;48.358;10.960;2023-08-08T08:54:50;96132.06;;;21.43;34.19
81547;BME280;71078;48.358;10.960;2023-08-08T08:57:11;96129.16;;;21.24;34.77
81547;BME280;71078;48.358;10.960;2023-08-08T08:59:32;96136.28;;;21.55;34.65
81547;BME280;71078;48.358;10.960;2023-08-08T09:01:53;96135.41;;;21.06;34.69
81547;BME280;71078;48.358;10.960;2023-08-08T09:04:15;96136.16;;;20.76;34.69
81547;BME280;71078;48.358;10.960;2023-08-08T09:06:39;96130.25;;;21.45;34.07
81547;BME280;71078;48.358;10.960;2023-08-08T09:09:00;96143.34;;;21.32;34.32
81547;BME280;71078;48.358;10.960;2023-08-08T09:11:34;96135.69;;;21.02;35.03
81547;BME280;71078;48.358;10.960;2023-08-08T09:13:55;96122.81;;;22.02;34.61
81547;BME280;71078;48.358;10.960;2023-08-08T09:16:16;96125.63;;;22.02;33.28
81547;BME280;71078;48.358;10.960;2023-08-08T09:18:37;96138.66;;;20.80;35.08
81547;BME280;71078;48.358;10.960;2023-08-08T09:20:59;96125.78;;;20.71;34.19
81547;BME280;71078;48.358;10.960;2023-08-08T09:23:20;96127.97;;;21.14;34.23
81547;BME280;71078;48.358;10.960;2023-08-08T09:25:41;96128.75;;;21.14;33.65
81547;BME280;71078;48.358;10.960;2023-08-08T09:28:02;96143.34;;;20.03;34.88
81547;BME280;71078;48.358;10.960;2023-08-08T09:30:22;96135.47;;;20.12;34.59
81547;BME280;71078;48.358;10.960;2023-08-08T09:32:43;96143.41;;;19.75;35.09
81547;BME280;71078;48.358;10.960;2023-08-08T09:35:05;96134.84;;;20.36;35.30
81547;BME280;71078;48.358;10.960;2023-08-08T09:37:30;96134.22;;;20.96;35.14
81547;BME280;71078;48.358;10.960;2023-08-08T09:40:01;96134.53;;;19.87;35.80
81547;BME280;71078;48.358;10.960;2023-08-08T09:42:25;96130.91;;;20.62;34.93
81547;BME280;71078;48.358;10.960;2023-08-08T09:44:46;96120.63;;;20.81;34.15
81547;BME280;71078;48.358;10.960;2023-08-08T09:47:12;96122.84;;;20.00;35.38
81547;BME280;71078;48.358;10.960;2023-08-08T09:49:34;96123.00;;;21.61;34.26
81547;BME280;71078;48.358;10.960;2023-08-08T09:51:56;96119.19;;;21.04;33.00
81547;BME280;71078;48.358;10.960;2023-08-08T09:54:19;96104.25;;;20.96;32.69
81547;BME280;71078;48.358;10.960;2023-08-08T09:56:42;96111.75;;;21.67;32.52
81547;BME280;71078;48.358;10.960;2023-08-08T09:59:04;96103.63;;;21.88;32.65
81547;BME280;71078;48.358;10.960;2023-08-08T10:01:25;96091.66;;;21.14;33.07
81547;BME280;71078;48.358;10.960;2023-08-08T10:03:48;96109.78;;;21.62;33.53
81547;BME280;71078;48.358;10.960;2023-08-08T10:06:13;96106.91;;;21.43;32.83
81547;BME280;71078;48.358;10.960;2023-08-08T10:08:35;96096.59;;;22.05;32.73
81547;BME280;71078;48.358;10.960;2023-08-08T10:10:56;96100.41;;;21.59;32.62
81547;BME280;71078;48.358;10.960;2023-08-08T10:13:21;96112.91;;;21.28;32.82
81547;BME280;71078;48.358;10.960;2023-08-08T10:15:42;96110.28;;;22.46;32.23
81547;BME280;71078;48.358;10.960;2023-08-08T10:18:03;96105.13;;;21.45;32.46
81547;BME280;71078;48.358;10.960;2023-08-08T10:20:25;96103.16;;;22.27;31.91
81547;BME280;71078;48.358;10.960;2023-08-08T10:22:46;96100.66;;;21.80;32.25
81547;BME280;71078;48.358;10.960;2023-08-08T10:25:08;96097.59;;;21.59;31.90
81547;BME280;71078;48.358;10.960;2023-08-08T10:27:36;96091.66;;;22.11;31.76
81547;BME280;71078;48.358;10.960;2023-08-08T10:30:04;96093.41;;;22.14;31.08
81547;BME280;71078;48.358;10.960;2023-08-08T10:32:27;96091.44;;;22.09;31.33
81547;BME280;71078;48.358;10.960;2023-08-08T10:34:48;96099.47;;;22.37;31.42
81547;BME280;71078;48.358;10.960;2023-08-08T10:37:15;96086.81;;;21.69;31.96
81547;BME280;71078;48.358;10.960;2023-08-08T10:39:36;96093.94;;;22.13;31.93
81547;BME280;71078;48.358;10.960;2023-08-08T10:42:01;96100.09;;;21.87;31.62
81547;BME280;71078;48.358;10.960;2023-08-08T10:44:26;96099.31;;;21.86;31.29
81547;BME280;71078;48.358;10.960;2023-08-08T10:46:47;96091.66;;;21.68;31.76
81547;BME280;71078;48.358;10.960;2023-08-08T10:49:11;96093.47;;;22.09;31.94
81547;BME280;71078;48.358;10.960;2023-08-08T10:51:43;96084.00;;;21.93;31.09
81547;BME280;71078;48.358;10.960;2023-08-08T10:54:06;96084.25;;;22.70;30.42
81547;BME280;71078;48.358;10.960;2023-08-08T10:56:30;96080.13;;;21.53;30.96
81547;BME280;71078;48.358;10.960;2023-08-08T10:58:51;96086.91;;;22.95;30.59
81547;BME280;71078;48.358;10.960;2023-08-08T11:01:11;96090.69;;;22.09;29.02
81547;BME280;71078;48.358;10.960;2023-08-08T11:03:37;96080.78;;;22.08;30.31
81547;BME280;71078;48.358;10.960;2023-08-08T11:05:59;96067.97;;;22.50;30.76
81547;BME280;71078;48.358;10.960;2023-08-08T11:08:21;96058.59;;;22.98;30.19
81547;BME280;71078;48.358;10.960;2023-08-08T11:10:43;96071.16;;;23.76;29.84
81547;BME280;71078;48.358;10.960;2023-08-08T11:13:05;96061.00;;;22.75;29.67
81547;BME280;71078;48.358;10.960;2023-08-08T11:15:27;96071.72;;;22.90;29.74
81547;BME280;71078;48.358;10.960;2023-08-08T11:17:48;96064.34;;;22.55;29.89
81547;BME280;71078;48.358;10.960;2023-08-08T11:20:09;96059.66;;;23.08;30.79
81547;BME280;71078;48.358;10.960;2023-08-08T11:22:30;96064.38;;;23.32;29.07
81547;BME280;71078;48.358;10.960;2023-08-08T11:24:51;96057.59;;;22.64;29.22
81547;BME280;71078;48.358;10.960;2023-08-08T11:27:12;96059.69;;;23.22;29.41
81547;BME280;71078;48.358;10.960;2023-08-08T11:29:32;96062.72;;;22.78;29.14
81547;BME280;71078;48.358;10.960;2023-08-08T11:31:53;96063.59;;;22.73;29.52
81547;BME280;71078;48.358;10.960;2023-08-08T11:34:15;96050.94;;;22.99;29.71
81547;BME280;71078;48.358;10.960;2023-08-08T11:36:36;96059.97;;;23.63;29.22
81547;BME280;71078;48.358;10.960;2023-08-08T11:38:59;96056.19;;;22.89;29.50
81547;BME280;71078;48.358;10.960;2023-08-08T11:41:22;96060.19;;;22.94;28.98
81547;BME280;71078;48.358;10.960;2023-08-08T11:43:44;96057.81;;;23.56;29.45
81547;BME280;71078;48.358;10.960;2023-08-08T11:46:09;96060.94;;;23.53;29.40
81547;BME280;71078;48.358;10.960;2023-08-08T11:48:32;96049.78;;;23.87;28.22
81547;BME280;71078;48.358;10.960;2023-08-08T11:50:53;96057.59;;;23.54;28.44
81547;BME280;71078;48.358;10.960;2023-08-08T11:53:14;96048.84;;;23.44;28.45
81547;BME280;71078;48.358;10.960;2023-08-08T11:55:36;96051.16;;;23.14;29.20
81547;BME280;71078;48.358;10.960;2023-08-08T11:57:56;96040.22;;;22.52;29.23
81547;BME280;71078;48.358;10.960;2023-08-08T12:00:19;96040.75;;;23.81;29.38
81547;BME280;71078;48.358;10.960;2023-08-08T12:02:41;96036.31;;;23.98;29.40
81547;BME280;71078;48.358;10.960;2023-08-08T12:05:07;96038.66;;;23.94;28.02
81547;BME280;71078;48.358;10.960;2023-08-08T12:07:31;96033.00;;;23.34;28.00
81547;BME280;71078;48.358;10.960;2023-08-08T12:09:52;96024.25;;;23.64;28.63
81547;BME280;71078;48.358;10.960;2023-08-08T12:12:13;96027.31;;;22.81;29.06
81547;BME280;71078;48.358;10.960;2023-08-08T12:14:38;96031.38;;;23.52;28.86
81547;BME280;71078;48.358;10.960;2023-08-08T12:17:11;96032.66;;;23.64;28.02
81547;BME280;71078;48.358;10.960;2023-08-08T12:19:33;96032.03;;;22.54;29.80
81547;BME280;71078;48.358;10.960;2023-08-08T12:21:54;96020.34;;;23.80;29.03